Rechercher aéroport 
image banner adimage banner ad
image banner ad

SBPF - Lauro Kurtz Airport

Situé à Passo Fundo, Brazil

ICAO - SBPF, IATA - PFB

Données fournies par Airmate  

Information générale

Coordonnées: S28°14'43" W52°19'43"
Élévation : 2375 feet MSL.
Variation magnétique : -17° East
Voir autres Aéroports à Rio Grande do Sul

Données opérationnelles

Accessible au public
Heure actuelle UTC:
Heure actuelle locale:
Météo
METAR: SBPF 301600Z 35010KT CAVOK 28/20 Q1012
Voir NOTAMs / SUP AIP / TFR affectant cet aéroport [VIEW]
Fréquences de communication: [VIEW]

Pistes:

Identifiant RWYQFULongueur (ft)Largeur (ft)SurfaceLDA (ft)
26557798ASP
08557798UNK

Coordonnées de l'aéroport

Adresse: Passo Fundo Brazil

Vue satellite de SBPF